EGPH/EDI METAR and TAF weather

Enter ICAO airport designator
Station Type Date Time Source
EGPH METAR 2019/08/21 22:20 UTC NOAA

EGPH 212220Z 24007KT 9999 SCT044 13/12 Q1014


Station Type Date Time Source
EGPH Decoded METAR 2019/08/21 22:20 UTC NOAA

Station name not available
Aug 21, 2019 - 06:20 PM EDT / 2019.08.21 2220 UTC
Wind: from the WSW (240 degrees) at 8 MPH (7 KT):0
Visibility: greater than 7 mile(s):0
Sky conditions: partly cloudy
Temperature: 55 F (13 C)
Dew Point: 53 F (12 C)
Relative Humidity: 93%
Pressure (altimeter): 29.94 in. Hg (1014 hPa)
ob: EGPH 212220Z 24007KT 9999 SCT044 13/12 Q1014
cycle: 22

Station Type Date Time Source
EGPH TAF 2019/08/21 18:42 UTC NOAA

TAF
AMD EGPH 211838Z 2118/2218 21018G28KT 9999 SCT030
BECMG 2118/2120 21014KT
TEMPO 2118/2122 8000 -RA PROB30
TEMPO 2118/2120 4000 RA PROB40
TEMPO 2119/2124 BKN012
TEMPO 2212/2218 22018G28KT PROB40
TEMPO 2212/2218 6000 RADZ BKN012

Example: see airport list